createdAt,value
2022-12-20T00:01:27.848Z,9.70
2022-12-20T00:03:56.037Z,9.70
2022-12-20T00:06:23.510Z,9.90
2022-12-20T00:08:59.131Z,9.80
2022-12-20T00:11:27.152Z,9.90
2022-12-20T00:13:54.080Z,9.80
2022-12-20T00:16:26.418Z,9.80
2022-12-20T00:18:55.987Z,9.90
2022-12-20T00:21:23.040Z,9.90
2022-12-20T00:23:49.822Z,10.00
2022-12-20T00:26:18.985Z,10.00
2022-12-20T00:28:46.242Z,10.10
2022-12-20T00:31:15.430Z,10.00
2022-12-20T00:33:46.439Z,10.10
2022-12-20T00:36:14.154Z,10.10
2022-12-20T00:38:40.862Z,10.10
2022-12-20T00:41:10.916Z,10.10
2022-12-20T00:43:38.918Z,10.10
2022-12-20T00:46:06.875Z,10.10
2022-12-20T00:48:34.212Z,10.10
2022-12-20T00:51:05.022Z,10.20
2022-12-20T00:53:32.513Z,10.10
2022-12-20T00:55:59.674Z,10.10
2022-12-20T00:58:27.123Z,10.20
2022-12-20T01:00:56.764Z,10.20
2022-12-20T01:03:26.712Z,10.30
2022-12-20T01:05:56.196Z,10.20
2022-12-20T01:08:23.872Z,10.30
2022-12-20T01:11:06.721Z,10.20
2022-12-20T01:13:36.319Z,10.30
2022-12-20T01:16:22.011Z,10.30
2022-12-20T01:18:49.698Z,10.20
2022-12-20T01:21:17.814Z,10.20
2022-12-20T01:23:44.781Z,10.10
2022-12-20T01:26:14.307Z,10.00
2022-12-20T01:28:43.297Z,10.00
2022-12-20T01:31:13.630Z,10.00
2022-12-20T01:33:40.427Z,9.90
2022-12-20T01:36:10.855Z,9.90
2022-12-20T01:38:37.572Z,9.80
2022-12-20T01:41:04.575Z,9.80
2022-12-20T01:43:55.400Z,9.80
2022-12-20T01:46:27.300Z,9.70
2022-12-20T01:48:59.330Z,9.70
2022-12-20T01:51:27.741Z,9.70
2022-12-20T01:54:10.539Z,9.70
2022-12-20T01:56:38.134Z,9.70
2022-12-20T01:59:04.851Z,9.70
2022-12-20T02:01:31.878Z,9.70
2022-12-20T02:03:58.826Z,9.70
2022-12-20T02:06:26.797Z,9.60
2022-12-20T02:08:56.655Z,9.60
2022-12-20T02:11:51.153Z,9.60
2022-12-20T02:14:51.089Z,9.60
2022-12-20T02:17:44.731Z,9.60
2022-12-20T02:20:50.913Z,9.50
2022-12-20T02:23:32.780Z,9.60
2022-12-20T02:26:08.232Z,9.60
2022-12-20T02:28:37.553Z,9.60
2022-12-20T02:31:08.046Z,9.60
2022-12-20T02:33:34.692Z,9.50
2022-12-20T02:36:04.171Z,9.60
2022-12-20T02:38:33.871Z,9.60
2022-12-20T02:41:15.594Z,9.60
2022-12-20T02:44:04.024Z,9.60
2022-12-20T02:46:32.155Z,9.60
2022-12-20T02:49:02.418Z,9.50
2022-12-20T02:51:32.219Z,9.50
2022-12-20T02:54:00.780Z,9.60
2022-12-20T02:56:42.831Z,9.60
2022-12-20T02:59:18.351Z,9.60
2022-12-20T03:01:53.707Z,9.60
2022-12-20T03:04:24.041Z,9.60
2022-12-20T03:07:07.525Z,9.60
2022-12-20T03:09:36.793Z,9.60
2022-12-20T03:12:03.880Z,9.60
2022-12-20T03:14:30.825Z,9.60
2022-12-20T03:16:57.692Z,9.60
2022-12-20T03:19:24.710Z,9.60
2022-12-20T03:21:51.678Z,9.50
2022-12-20T03:24:18.772Z,9.50
2022-12-20T03:26:45.493Z,9.50
2022-12-20T03:29:12.310Z,9.50
2022-12-20T03:31:39.496Z,9.50
2022-12-20T03:34:06.703Z,9.50
2022-12-20T03:36:33.934Z,9.50
2022-12-20T03:39:00.795Z,9.50
2022-12-20T03:41:27.876Z,9.50
2022-12-20T03:43:54.601Z,9.50
2022-12-20T03:46:21.391Z,9.60
2022-12-20T03:48:48.091Z,9.50
2022-12-20T03:51:14.803Z,9.60
2022-12-20T03:53:41.519Z,9.60
2022-12-20T03:56:08.392Z,9.70
2022-12-20T03:58:35.108Z,9.70
2022-12-20T04:01:01.778Z,9.70
2022-12-20T04:03:28.604Z,9.70
2022-12-20T04:05:55.339Z,9.70
2022-12-20T04:08:22.146Z,9.80
2022-12-20T04:11:07.381Z,9.80
2022-12-20T04:13:34.095Z,9.80
2022-12-20T04:16:01.425Z,9.80
2022-12-20T04:18:28.235Z,9.90
2022-12-20T04:20:55.440Z,10.00
2022-12-20T04:23:22.181Z,10.00
2022-12-20T04:25:48.888Z,10.10
2022-12-20T04:28:15.585Z,10.00
2022-12-20T04:30:42.267Z,10.10
2022-12-20T04:33:09.023Z,10.10
2022-12-20T04:35:37.248Z,10.10
2022-12-20T04:38:04.411Z,10.20
2022-12-20T04:40:31.039Z,10.10
2022-12-20T04:42:57.716Z,10.10
2022-12-20T04:45:24.509Z,10.20
2022-12-20T04:47:51.185Z,10.20
2022-12-20T04:50:19.198Z,10.20
2022-12-20T04:53:04.974Z,10.20
2022-12-20T04:55:31.970Z,10.20
2022-12-20T04:58:03.761Z,10.10
2022-12-20T05:00:34.578Z,10.10
2022-12-20T05:03:01.403Z,10.10
2022-12-20T05:05:28.356Z,10.10
2022-12-20T05:07:55.489Z,10.10
2022-12-20T05:10:22.443Z,10.10
2022-12-20T05:12:49.315Z,10.10
2022-12-20T05:15:16.079Z,10.10
2022-12-20T05:17:42.712Z,10.10
2022-12-20T05:20:10.631Z,10.10
2022-12-20T05:22:56.155Z,10.10
2022-12-20T05:25:41.278Z,10.10
2022-12-20T05:28:08.245Z,10.10
2022-12-20T05:30:35.101Z,10.10
2022-12-20T05:33:01.829Z,10.20
2022-12-20T05:35:28.477Z,10.10
2022-12-20T05:37:55.249Z,10.20
2022-12-20T05:40:22.334Z,10.10
2022-12-20T05:42:49.007Z,10.10
2022-12-20T05:45:15.675Z,10.10
2022-12-20T05:47:42.263Z,10.10
2022-12-20T05:50:15.032Z,10.10
2022-12-20T05:52:45.082Z,10.10
2022-12-20T05:55:12.133Z,10.10
2022-12-20T05:57:38.734Z,10.10
2022-12-20T06:00:06.231Z,10.10
2022-12-20T06:02:33.044Z,10.20
2022-12-20T06:04:59.902Z,10.20
2022-12-20T06:07:29.060Z,10.30
2022-12-20T06:09:56.627Z,10.20
2022-12-20T06:12:23.515Z,10.20
2022-12-20T06:14:50.641Z,10.20
2022-12-20T06:17:20.005Z,10.20
2022-12-20T06:19:46.891Z,10.20
2022-12-20T06:22:13.647Z,10.20
2022-12-20T06:24:45.947Z,10.20
2022-12-20T06:27:14.752Z,10.30
2022-12-20T06:29:41.386Z,10.40
2022-12-20T06:32:08.076Z,10.30
2022-12-20T06:34:34.770Z,10.30
2022-12-20T06:37:01.422Z,10.40
2022-12-20T06:39:28.170Z,10.40
2022-12-20T06:41:54.816Z,10.40
2022-12-20T06:44:21.543Z,10.40
2022-12-20T06:46:48.217Z,10.50
2022-12-20T06:49:14.933Z,10.50
2022-12-20T06:51:41.567Z,10.50
2022-12-20T06:54:08.250Z,10.50
2022-12-20T06:56:41.099Z,10.50
2022-12-20T06:59:08.273Z,10.60
2022-12-20T07:01:35.087Z,10.60
2022-12-20T07:04:01.896Z,10.50
2022-12-20T07:06:29.376Z,10.60
2022-12-20T07:08:56.144Z,10.60
2022-12-20T07:11:22.761Z,10.60
2022-12-20T07:13:50.202Z,10.70
2022-12-20T07:16:16.950Z,10.80
2022-12-20T07:18:43.568Z,10.80
2022-12-20T07:21:10.280Z,10.80
2022-12-20T07:23:36.936Z,10.70
2022-12-20T07:26:04.079Z,10.80
2022-12-20T07:28:30.840Z,10.80
2022-12-20T07:31:01.885Z,10.80
2022-12-20T07:33:29.201Z,10.90
2022-12-20T07:36:08.061Z,10.90
2022-12-20T07:38:35.605Z,10.90
2022-12-20T07:41:08.299Z,10.80
2022-12-20T07:43:35.145Z,10.80
2022-12-20T07:46:03.144Z,10.90
2022-12-20T07:48:30.190Z,10.80
2022-12-20T07:51:05.275Z,10.90
2022-12-20T07:53:34.435Z,10.90
2022-12-20T07:56:01.787Z,10.90
2022-12-20T07:58:30.134Z,10.90
2022-12-20T08:00:57.710Z,10.90
2022-12-20T08:03:32.160Z,10.90
2022-12-20T08:06:03.885Z,10.90
2022-12-20T08:08:34.503Z,10.80
2022-12-20T08:11:03.258Z,10.90
2022-12-20T08:13:29.903Z,10.90
2022-12-20T08:15:56.687Z,10.80
2022-12-20T08:18:23.316Z,10.80
2022-12-20T08:20:49.969Z,10.80
2022-12-20T08:23:16.601Z,10.80
2022-12-20T08:25:43.352Z,10.80
2022-12-20T08:28:10.082Z,10.80
2022-12-20T08:30:37.495Z,10.80
2022-12-20T08:33:05.557Z,10.80
2022-12-20T08:35:32.291Z,10.90
2022-12-20T08:37:58.917Z,10.80
2022-12-20T08:40:25.707Z,10.80
2022-12-20T08:42:52.329Z,10.80
2022-12-20T08:45:20.193Z,10.90
2022-12-20T08:47:47.827Z,10.80
2022-12-20T08:50:14.416Z,10.90
2022-12-20T08:52:41.221Z,10.90
2022-12-20T08:55:08.202Z,10.80
2022-12-20T08:57:35.243Z,10.80
2022-12-20T09:00:02.937Z,10.80
2022-12-20T09:02:29.833Z,10.70
2022-12-20T09:04:56.807Z,10.60
2022-12-20T09:07:23.439Z,10.60
2022-12-20T09:09:50.067Z,10.60
2022-12-20T09:12:16.695Z,10.60
2022-12-20T09:14:43.534Z,10.60
2022-12-20T09:17:10.128Z,10.60
2022-12-20T09:19:36.784Z,10.50
2022-12-20T09:22:04.304Z,10.50
2022-12-20T09:24:31.427Z,10.50
2022-12-20T09:26:58.103Z,10.50
2022-12-20T09:29:29.511Z,10.40
2022-12-20T09:31:58.806Z,10.40
2022-12-20T09:34:25.640Z,10.40
2022-12-20T09:36:52.505Z,10.40
2022-12-20T09:39:19.187Z,10.40
2022-12-20T09:41:46.535Z,10.30
2022-12-20T09:44:41.105Z,10.30
2022-12-20T09:47:15.353Z,10.30
2022-12-20T09:49:45.843Z,10.30
2022-12-20T09:52:28.734Z,10.30
2022-12-20T09:55:25.264Z,10.20
2022-12-20T09:58:11.238Z,10.20
2022-12-20T10:00:48.596Z,10.20
2022-12-20T10:03:35.904Z,10.20
2022-12-20T10:06:16.083Z,10.20
2022-12-20T10:08:58.892Z,10.20
2022-12-20T10:11:48.082Z,10.20
2022-12-20T10:14:30.683Z,10.20
2022-12-20T10:17:32.223Z,10.20
2022-12-20T10:20:34.419Z,10.20
2022-12-20T10:23:13.628Z,10.20
2022-12-20T10:25:40.630Z,10.20
2022-12-20T10:28:16.283Z,10.20
2022-12-20T10:30:43.563Z,10.20
2022-12-20T10:33:24.283Z,10.20
2022-12-20T10:35:51.337Z,10.20
2022-12-20T10:38:18.370Z,10.20
2022-12-20T10:43:43.145Z,10.20
2022-12-20T10:46:11.170Z,10.20
2022-12-20T10:48:43.784Z,10.20
2022-12-20T10:51:15.387Z,10.20
2022-12-20T10:53:55.152Z,10.20
2022-12-20T10:56:27.595Z,10.20
2022-12-20T10:58:58.918Z,10.20
2022-12-20T11:01:34.281Z,10.20
2022-12-20T11:04:07.326Z,10.20
2022-12-20T11:06:37.214Z,10.20
2022-12-20T11:09:28.541Z,10.30
2022-12-20T11:12:11.809Z,10.20
2022-12-20T11:14:40.277Z,10.20
2022-12-20T11:17:35.916Z,10.20
2022-12-20T11:20:33.924Z,10.20
2022-12-20T11:23:25.182Z,10.30
2022-12-20T11:26:17.221Z,10.30
2022-12-20T11:28:57.165Z,10.30
2022-12-20T11:31:48.468Z,10.30
2022-12-20T11:34:25.982Z,10.30
2022-12-20T11:37:09.925Z,10.30
2022-12-20T11:40:23.655Z,10.30
2022-12-20T11:42:53.057Z,10.30
2022-12-20T11:45:48.428Z,10.40
2022-12-20T11:48:26.397Z,10.30
2022-12-20T11:51:24.464Z,10.30
2022-12-20T11:53:58.917Z,10.30
2022-12-20T11:56:43.607Z,10.30
2022-12-20T11:59:34.947Z,10.30
2022-12-20T12:02:22.412Z,10.30
2022-12-20T12:04:59.898Z,10.30
2022-12-20T12:07:30.986Z,10.40
2022-12-20T12:10:09.502Z,10.40
2022-12-20T12:12:43.548Z,10.40
2022-12-20T12:15:16.089Z,10.40
2022-12-20T12:18:07.731Z,10.40
2022-12-20T12:20:37.291Z,10.40
2022-12-20T12:23:26.875Z,10.40
2022-12-20T12:25:53.748Z,10.40
2022-12-20T12:28:22.668Z,10.40
2022-12-20T12:30:58.226Z,10.40
2022-12-20T12:33:38.528Z,10.40
2022-12-20T12:36:40.422Z,10.40
2022-12-20T12:39:25.900Z,10.40
2022-12-20T12:42:08.184Z,10.40
2022-12-20T12:44:43.646Z,10.50
2022-12-20T12:47:21.717Z,10.50
2022-12-20T12:49:51.423Z,10.50
2022-12-20T12:52:42.957Z,10.50
2022-12-20T12:55:39.447Z,10.50
2022-12-20T12:58:29.918Z,10.50
2022-12-20T13:01:12.428Z,10.50
2022-12-20T13:03:54.526Z,10.50
2022-12-20T13:06:28.198Z,10.50
2022-12-20T13:09:04.022Z,10.50
2022-12-20T13:11:33.928Z,10.50
2022-12-20T13:14:32.808Z,10.50
2022-12-20T13:17:14.403Z,10.50
2022-12-20T13:19:55.439Z,10.50
2022-12-20T13:22:26.358Z,10.50
2022-12-20T13:24:57.625Z,10.50
2022-12-20T13:27:26.018Z,10.50
2022-12-20T13:30:02.708Z,10.40
2022-12-20T13:32:47.737Z,10.40
2022-12-20T13:35:29.548Z,10.50
2022-12-20T13:38:05.803Z,10.50
2022-12-20T13:40:44.639Z,10.50
2022-12-20T13:43:16.195Z,10.40
2022-12-20T13:45:49.571Z,10.50
2022-12-20T13:48:20.111Z,10.40
2022-12-20T13:50:52.914Z,10.40
2022-12-20T13:53:22.202Z,10.40
2022-12-20T13:55:50.188Z,10.50
2022-12-20T13:58:24.209Z,10.50
2022-12-20T14:00:51.953Z,10.40
2022-12-20T14:03:24.871Z,10.50
2022-12-20T14:06:02.272Z,10.50
2022-12-20T14:08:38.353Z,10.40
2022-12-20T14:11:13.295Z,10.40
2022-12-20T14:13:40.758Z,10.50
2022-12-20T14:16:19.023Z,10.40
2022-12-20T14:18:50.650Z,10.50
2022-12-20T14:21:18.913Z,10.50
2022-12-20T14:23:48.866Z,10.50
2022-12-20T14:26:19.394Z,10.50
2022-12-20T14:28:51.965Z,10.40
2022-12-20T14:31:33.408Z,10.40
2022-12-20T14:34:11.582Z,10.40
2022-12-20T14:36:43.798Z,10.40
2022-12-20T14:39:27.465Z,10.50
2022-12-20T14:42:03.485Z,10.40
2022-12-20T14:44:31.634Z,10.40
2022-12-20T14:47:20.407Z,10.40
2022-12-20T14:50:03.062Z,10.40
2022-12-20T14:52:32.700Z,10.40
2022-12-20T14:55:09.600Z,10.40
2022-12-20T14:57:36.770Z,10.40
2022-12-20T15:00:07.320Z,10.40
2022-12-20T15:02:35.996Z,10.40
2022-12-20T15:05:28.312Z,10.40
2022-12-20T15:07:54.974Z,10.40
2022-12-20T15:10:21.607Z,10.40
2022-12-20T15:12:48.240Z,10.40
2022-12-20T15:15:28.176Z,10.40
2022-12-20T15:17:56.204Z,10.40
2022-12-20T15:20:22.789Z,10.40
2022-12-20T15:22:49.484Z,10.30
2022-12-20T15:25:17.422Z,10.30
2022-12-20T15:27:44.185Z,10.30
2022-12-20T15:30:14.360Z,10.30
2022-12-20T15:32:54.597Z,10.30
2022-12-20T15:35:22.098Z,10.30
2022-12-20T15:37:48.943Z,10.30
2022-12-20T15:40:15.716Z,10.30
2022-12-20T15:42:43.593Z,10.30
2022-12-20T15:45:16.375Z,10.30
2022-12-20T15:47:43.018Z,10.30
2022-12-20T15:50:11.892Z,10.30
2022-12-20T15:52:38.539Z,10.20
2022-12-20T15:55:07.003Z,10.20
2022-12-20T15:57:34.668Z,10.20
2022-12-20T16:00:03.224Z,10.20
2022-12-20T16:02:32.621Z,10.20
2022-12-20T16:04:59.584Z,10.20
2022-12-20T16:07:26.569Z,10.20
2022-12-20T16:09:53.861Z,10.20
2022-12-20T16:12:30.377Z,10.20
2022-12-20T16:14:57.249Z,10.20
2022-12-20T16:17:24.505Z,10.10
2022-12-20T16:19:51.210Z,10.20
2022-12-20T16:22:20.246Z,10.20
2022-12-20T16:24:48.236Z,10.20
2022-12-20T16:27:14.960Z,10.20
2022-12-20T16:29:41.858Z,10.10
2022-12-20T16:32:16.573Z,10.10
2022-12-20T16:34:43.684Z,10.10
2022-12-20T16:37:11.770Z,10.10
2022-12-20T16:39:38.403Z,10.10
2022-12-20T16:42:16.624Z,10.10
2022-12-20T16:44:45.290Z,10.10
2022-12-20T16:47:13.225Z,10.10
2022-12-20T16:49:44.523Z,10.10
2022-12-20T16:52:19.218Z,10.10
2022-12-20T16:54:45.955Z,10.10
2022-12-20T16:57:12.604Z,10.10
2022-12-20T16:59:39.311Z,10.10
2022-12-20T17:02:31.817Z,10.00
2022-12-20T17:04:59.530Z,10.10
2022-12-20T17:07:26.481Z,10.00
2022-12-20T17:10:11.945Z,10.00
2022-12-20T17:12:38.740Z,10.00
2022-12-20T17:15:06.175Z,10.00
2022-12-20T17:17:32.851Z,10.00
2022-12-20T17:19:59.987Z,10.00
2022-12-20T17:25:22.814Z,10.00
2022-12-20T17:27:50.345Z,10.00
2022-12-20T17:30:17.593Z,10.00
2022-12-20T17:32:44.966Z,10.00
2022-12-20T17:35:25.034Z,10.00
2022-12-20T17:37:54.069Z,10.00
2022-12-20T17:40:20.871Z,10.00
2022-12-20T17:42:47.493Z,10.00
2022-12-20T17:45:29.557Z,10.00
2022-12-20T17:47:57.150Z,10.00
2022-12-20T17:50:24.714Z,10.00
2022-12-20T17:52:52.388Z,10.00
2022-12-20T17:55:27.450Z,9.90
2022-12-20T17:57:55.438Z,10.00
2022-12-20T18:00:38.559Z,9.90
2022-12-20T18:03:07.009Z,9.90
2022-12-20T18:05:33.847Z,10.00
2022-12-20T18:08:00.469Z,9.90
2022-12-20T18:10:27.295Z,9.90
2022-12-20T18:12:53.931Z,9.90
2022-12-20T18:15:20.597Z,9.90
2022-12-20T18:17:47.376Z,9.90
2022-12-20T18:20:14.175Z,9.90
2022-12-20T18:22:40.818Z,9.90
2022-12-20T18:25:08.516Z,10.00
2022-12-20T18:27:42.531Z,9.90
2022-12-20T18:30:12.265Z,9.90
2022-12-20T18:32:39.871Z,9.90
2022-12-20T18:35:07.258Z,9.90
2022-12-20T18:37:33.893Z,9.90
2022-12-20T18:40:00.528Z,9.90
2022-12-20T18:42:27.201Z,9.90
2022-12-20T18:44:53.969Z,9.90
2022-12-20T18:47:20.629Z,9.90
2022-12-20T18:49:47.315Z,9.90
2022-12-20T18:52:13.993Z,9.90
2022-12-20T18:54:40.623Z,9.90
2022-12-20T18:57:07.396Z,9.90
2022-12-20T18:59:34.622Z,9.90
2022-12-20T19:02:01.663Z,9.90
2022-12-20T19:04:28.409Z,9.90
2022-12-20T19:06:55.152Z,9.90
2022-12-20T19:09:22.385Z,9.90
2022-12-20T19:11:56.176Z,9.90
2022-12-20T19:14:23.588Z,9.90
2022-12-20T19:16:51.815Z,9.90
2022-12-20T19:19:18.704Z,9.90
2022-12-20T19:21:45.528Z,9.90
2022-12-20T19:24:12.373Z,9.90
2022-12-20T19:26:39.704Z,9.90
2022-12-20T19:29:07.104Z,9.90
2022-12-20T19:31:36.572Z,9.80
2022-12-20T19:34:10.211Z,9.80
2022-12-20T19:36:40.148Z,9.80
2022-12-20T19:39:12.052Z,9.80
2022-12-20T19:41:38.644Z,9.80
2022-12-20T19:44:06.151Z,9.80
2022-12-20T19:46:33.526Z,9.80
2022-12-20T19:49:00.425Z,9.80
2022-12-20T19:51:28.368Z,9.80
2022-12-20T19:53:56.676Z,9.80
2022-12-20T19:56:29.136Z,9.80
2022-12-20T19:58:56.325Z,9.80
2022-12-20T20:01:26.156Z,9.80
2022-12-20T20:03:58.020Z,9.80
2022-12-20T20:06:25.628Z,9.80
2022-12-20T20:08:52.508Z,9.80
2022-12-20T20:11:21.019Z,9.80
2022-12-20T20:13:47.891Z,9.80
2022-12-20T20:16:21.544Z,9.80
2022-12-20T20:18:49.112Z,9.80
2022-12-20T20:21:19.119Z,9.80
2022-12-20T20:23:45.789Z,9.80
2022-12-20T20:26:15.865Z,9.80
2022-12-20T20:28:45.424Z,9.80
2022-12-20T20:31:14.375Z,9.80
2022-12-20T20:33:41.513Z,9.80
2022-12-20T20:36:08.769Z,9.80
2022-12-20T20:38:35.399Z,9.80
2022-12-20T20:41:02.122Z,9.80
2022-12-20T20:43:29.769Z,9.70
2022-12-20T20:45:56.896Z,9.80
2022-12-20T20:48:23.840Z,9.70
2022-12-20T20:50:50.786Z,9.70
2022-12-20T20:53:17.442Z,9.70
2022-12-20T20:55:44.220Z,9.70
2022-12-20T20:58:10.975Z,9.70
2022-12-20T21:00:37.618Z,9.70
2022-12-20T21:03:04.702Z,9.70
2022-12-20T21:06:31.104Z,9.70
2022-12-20T21:08:21.787Z,9.70
2022-12-20T21:10:49.618Z,9.70
2022-12-20T21:13:17.025Z,9.70
2022-12-20T21:15:44.472Z,9.70
2022-12-20T21:18:11.900Z,9.70
2022-12-20T21:20:39.983Z,9.70
2022-12-20T21:23:06.931Z,9.70
2022-12-20T21:25:33.962Z,9.70
2022-12-20T21:28:00.595Z,9.60
2022-12-20T21:30:27.314Z,9.70
2022-12-20T21:32:54.267Z,9.60
2022-12-20T21:35:21.270Z,9.60
2022-12-20T21:37:47.909Z,9.60
2022-12-20T21:40:14.861Z,9.70
2022-12-20T21:42:41.479Z,9.60
2022-12-20T21:45:09.854Z,9.60
2022-12-20T21:47:36.658Z,9.60
2022-12-20T21:50:03.450Z,9.60
2022-12-20T21:52:30.555Z,9.60
2022-12-20T21:54:57.266Z,9.60
2022-12-20T21:57:23.898Z,9.60
2022-12-20T21:59:50.521Z,9.60
2022-12-20T22:02:17.292Z,9.50
2022-12-20T22:04:43.986Z,9.50
2022-12-20T22:07:10.680Z,9.60
2022-12-20T22:09:37.489Z,9.60
2022-12-20T22:12:04.237Z,9.50
2022-12-20T22:14:30.856Z,9.50
2022-12-20T22:16:57.675Z,9.50
2022-12-20T22:19:24.330Z,9.50
2022-12-20T22:21:57.440Z,9.50
2022-12-20T22:24:25.031Z,9.40
2022-12-20T22:26:51.722Z,9.40
2022-12-20T22:29:18.368Z,9.40
2022-12-20T22:31:45.210Z,9.40
2022-12-20T22:34:11.935Z,9.40
2022-12-20T22:36:38.703Z,9.30
2022-12-20T22:39:05.379Z,9.40
2022-12-20T22:41:34.676Z,9.30
2022-12-20T22:44:02.015Z,9.30
2022-12-20T22:49:17.611Z,9.30
2022-12-20T22:51:46.695Z,9.30
2022-12-20T22:54:17.945Z,9.30
2022-12-20T22:56:44.601Z,9.30
2022-12-20T22:59:11.162Z,9.30
2022-12-20T23:01:37.835Z,9.30
2022-12-20T23:04:04.860Z,9.30
2022-12-20T23:06:31.475Z,9.20
2022-12-20T23:08:58.057Z,9.30
2022-12-20T23:11:45.211Z,9.20
2022-12-20T23:14:39.761Z,9.20
